Time;durP1;ratioP1;P1;durP2;ratioP2;P2;SDS_P1;SDS_P2;PMS_P1;PMS_P2;Temp;Humidity;BMP_temperature;BMP_pressure;BME280_temperature;BME280_humidity;BME280_pressure;Samples;Min_cycle;Max_cycle;Signal;HPM_P1;HPM_P2
2023/07/23 00:18:52;;;;;;;;;;;;;;;20.60;46.42;99534.25;1078031;54;20006;31
2023/07/23 03:46:13;;;;;;;;;;;;;;;18.70;53.64;99494.00;1076809;54;19934;-83
2023/07/23 07:03:59;;;;;;;;;;;;;;;22.83;44.39;99506.53;1088181;54;19978;-86
2023/07/23 07:05:00;;;;;;;;;;;;;;;22.81;44.30;99513.28;1087749;47;19990;-86
2023/07/23 07:06:05;;;;;;;;;;;;;;;22.84;44.62;99515.50;1088043;54;19926;-88
2023/07/23 07:07:06;;;;;;;;;;;;;;;22.94;43.95;99504.03;1087964;47;19949;-87
2023/07/23 07:08:09;;;;;;;;;;;;;;;22.99;44.22;99506.84;1088170;54;19931;-86
2023/07/23 07:09:10;;;;;;;;;;;;;;;23.08;43.70;99499.94;1087629;47;19942;-87
2023/07/23 07:10:14;;;;;;;;;;;;;;;23.18;43.46;99499.34;1088929;39;20154;-86
2023/07/23 07:11:15;;;;;;;;;;;;;;;23.22;43.71;99503.25;1090591;39;21047;-87
2023/07/23 07:12:18;;;;;;;;;;;;;;;23.26;43.61;99501.72;1087768;39;20009;-85
2023/07/23 07:13:19;;;;;;;;;;;;;;;23.18;43.84;99504.81;1087651;47;19927;-85
2023/07/23 07:14:23;;;;;;;;;;;;;;;23.15;42.92;99495.19;1087408;51;19943;-89
2023/07/23 07:15:26;;;;;;;;;;;;;;;23.18;42.17;99500.19;1087445;47;19943;-87
2023/07/23 07:16:29;;;;;;;;;;;;;;;23.31;41.08;99509.19;1087492;54;20292;-87
2023/07/23 07:17:30;;;;;;;;;;;;;;;23.33;41.07;99496.13;1087561;47;19943;-86
2023/07/23 07:18:34;;;;;;;;;;;;;;;23.32;40.57;99494.47;1087580;47;19999;-86
2023/07/23 07:19:37;;;;;;;;;;;;;;;23.38;40.46;99489.97;1087552;47;19939;-86
2023/07/23 07:20:41;;;;;;;;;;;;;;;23.35;40.45;99493.97;1087541;47;19942;-87
2023/07/23 07:21:45;;;;;;;;;;;;;;;23.43;40.27;99500.94;1087422;47;19954;-88
2023/07/23 07:22:54;;;;;;;;;;;;;;;23.62;39.48;99491.50;1087586;47;19967;-87
2023/07/23 07:23:56;;;;;;;;;;;;;;;23.79;39.62;99491.53;1087502;54;19938;-87
2023/07/23 07:25:07;;;;;;;;;;;;;;;23.82;39.49;99484.75;1087469;47;19943;-87
2023/07/23 07:26:08;;;;;;;;;;;;;;;23.83;39.56;99495.41;1087631;54;19950;-87
2023/07/23 07:27:12;;;;;;;;;;;;;;;23.89;39.60;99488.16;1087740;54;19943;-88
2023/07/23 07:28:13;;;;;;;;;;;;;;;23.95;39.27;99489.09;1087453;47;19955;-87
2023/07/23 07:29:17;;;;;;;;;;;;;;;24.02;39.48;99489.75;1087747;39;20182;-87
2023/07/23 07:30:17;;;;;;;;;;;;;;;24.11;38.99;99482.81;1087288;47;19942;-88
2023/07/23 07:31:21;;;;;;;;;;;;;;;24.23;39.34;99492.81;1087402;47;20010;-86
2023/07/23 07:32:22;;;;;;;;;;;;;;;24.32;39.10;99493.25;1087326;47;19938;-88
2023/07/23 07:33:23;;;;;;;;;;;;;;;24.36;38.83;99492.50;1089991;39;20945;-87
2023/07/23 07:34:27;;;;;;;;;;;;;;;24.39;38.78;99485.72;1087412;47;19942;-87
2023/07/23 07:35:32;;;;;;;;;;;;;;;24.39;38.87;99489.25;1088404;39;20657;-87
2023/07/23 07:36:40;;;;;;;;;;;;;;;24.37;39.07;99488.66;1087372;47;19949;-86
2023/07/23 07:37:43;;;;;;;;;;;;;;;24.55;38.47;99484.84;1087219;47;20888;-86
2023/07/23 07:38:47;;;;;;;;;;;;;;;24.75;38.50;99483.50;1087219;54;19992;-88
2023/07/23 07:39:48;;;;;;;;;;;;;;;24.94;38.18;99486.75;1087158;54;19973;-87
2023/07/23 07:40:49;;;;;;;;;;;;;;;24.95;38.40;99476.66;1087166;47;19957;-87
2023/07/23 07:41:53;;;;;;;;;;;;;;;24.77;38.42;99489.56;1087035;47;20024;-86
2023/07/23 07:42:54;;;;;;;;;;;;;;;24.85;38.61;99488.28;1087028;47;20023;-88
2023/07/23 07:43:57;;;;;;;;;;;;;;;25.04;38.66;99475.97;1087135;47;19943;-87
2023/07/23 07:44:58;;;;;;;;;;;;;;;25.11;37.78;99477.69;1087171;54;19965;-88
2023/07/23 07:46:00;;;;;;;;;;;;;;;25.12;38.16;99487.56;1087038;47;19943;-86
2023/07/23 07:47:03;;;;;;;;;;;;;;;25.06;37.52;99484.75;1086971;47;19942;-86
2023/07/23 07:48:04;;;;;;;;;;;;;;;25.08;37.55;99479.84;1087172;54;19950;-88
2023/07/23 07:49:08;;;;;;;;;;;;;;;25.00;37.31;99485.75;1087136;47;20334;-86
2023/07/23 07:50:09;;;;;;;;;;;;;;;25.17;37.15;99482.13;1087466;54;19942;-87
2023/07/23 07:51:15;;;;;;;;;;;;;;;25.25;37.00;99480.84;1087727;54;19942;-87
2023/07/23 07:52:16;;;;;;;;;;;;;;;25.10;37.41;99482.31;1087654;54;19943;-86
2023/07/23 07:53:20;;;;;;;;;;;;;;;24.96;37.49;99479.13;1088723;39;20640;-85
2023/07/23 07:54:21;;;;;;;;;;;;;;;25.08;37.41;99482.59;1087639;54;19965;-87
2023/07/23 07:55:25;;;;;;;;;;;;;;;25.13;37.33;99491.94;1087509;47;19966;-87
2023/07/23 07:56:26;;;;;;;;;;;;;;;25.03;37.21;99489.88;1087323;47;19946;-87
2023/07/23 07:57:30;;;;;;;;;;;;;;;24.82;37.35;99486.88;1087300;47;19969;-86
2023/07/23 07:58:31;;;;;;;;;;;;;;;24.87;37.24;99486.13;1087637;46;19942;-87
2023/07/23 07:59:35;;;;;;;;;;;;;;;24.73;37.53;99485.66;1087583;47;20010;-87
2023/07/23 08:00:37;;;;;;;;;;;;;;;24.84;37.53;99473.81;1087662;54;19943;-87
2023/07/23 08:01:41;;;;;;;;;;;;;;;24.71;37.65;99480.47;1087771;54;19943;-89
2023/07/23 08:02:42;;;;;;;;;;;;;;;24.67;37.65;99483.91;1087837;54;19943;-86
2023/07/23 08:03:46;;;;;;;;;;;;;;;24.60;37.82;99487.66;1087846;54;20014;-88
2023/07/23 08:04:48;;;;;;;;;;;;;;;24.62;37.85;99479.22;1087066;46;19981;-88
2023/07/23 08:05:51;;;;;;;;;;;;;;;24.72;37.65;99484.84;1086963;47;20901;-86
2023/07/23 08:06:55;;;;;;;;;;;;;;;24.61;38.08;99478.38;1087261;46;20646;-87
2023/07/23 08:08:00;;;;;;;;;;;;;;;24.62;38.09;99490.13;1087317;47;21069;-89
2023/07/23 08:09:14;;;;;;;;;;;;;;;24.61;38.26;99480.28;1087336;46;19954;-87
2023/07/23 08:10:18;;;;;;;;;;;;;;;24.73;38.02;99483.78;1087592;54;20006;-87
2023/07/23 08:11:20;;;;;;;;;;;;;;;24.64;38.42;99493.47;1087296;47;19938;-89
2023/07/23 08:12:24;;;;;;;;;;;;;;;24.54;38.92;99496.03;1087490;46;19946;-88
2023/07/23 08:13:25;;;;;;;;;;;;;;;24.64;38.88;99492.63;1087390;47;19954;-88
2023/07/23 08:14:29;;;;;;;;;;;;;;;24.69;38.71;99490.00;1087384;47;19942;-87
2023/07/23 08:15:40;;;;;;;;;;;;;;;24.83;38.73;99490.47;1087309;47;19994;-87
2023/07/23 08:16:46;;;;;;;;;;;;;;;24.84;38.50;99492.13;1087491;54;19966;-87
2023/07/23 08:17:48;;;;;;;;;;;;;;;24.68;38.81;99494.63;1087615;54;20007;-87
2023/07/23 08:18:53;;;;;;;;;;;;;;;24.73;38.76;99489.25;1087356;46;19954;-88
2023/07/23 08:19:54;;;;;;;;;;;;;;;24.69;38.40;99492.72;1087332;47;20006;-87
2023/07/23 08:21:00;;;;;;;;;;;;;;;24.56;38.34;99493.88;1087363;54;20348;-87
2023/07/23 08:22:04;;;;;;;;;;;;;;;24.50;38.76;99481.22;1087396;47;19950;-88
2023/07/23 08:23:08;;;;;;;;;;;;;;;24.49;39.00;99479.56;1087377;47;19943;-86
2023/07/23 08:24:12;;;;;;;;;;;;;;;24.66;38.86;99483.06;1087415;54;19943;-89
2023/07/23 08:25:19;;;;;;;;;;;;;;;24.48;38.95;99486.94;1087305;47;19943;-87
2023/07/23 08:26:33;;;;;;;;;;;;;;;24.48;39.13;99484.22;1087381;47;19970;-88
2023/07/23 08:27:40;;;;;;;;;;;;;;;24.50;39.09;99476.59;1087259;47;19998;-88
2023/07/23 08:28:44;;;;;;;;;;;;;;;24.53;39.15;99480.72;1087398;47;19970;-86
2023/07/23 08:29:45;;;;;;;;;;;;;;;24.57;38.78;99482.69;1087443;47;19949;-87
2023/07/23 08:30:51;;;;;;;;;;;;;;;24.58;39.18;99478.06;1087734;46;19942;-87
2023/07/23 08:31:53;;;;;;;;;;;;;;;24.59;38.76;99496.09;1087348;54;20603;-85
2023/07/23 08:32:58;;;;;;;;;;;;;;;24.54;39.09;99490.56;1087580;47;19992;-87
2023/07/23 08:34:01;;;;;;;;;;;;;;;24.56;38.91;99491.16;1087356;46;20722;-88
2023/07/23 08:35:05;;;;;;;;;;;;;;;24.59;39.25;99488.75;1087275;47;19942;-86
2023/07/23 08:36:07;;;;;;;;;;;;;;;24.61;38.89;99488.47;1087323;47;19995;-86
2023/07/23 08:37:14;;;;;;;;;;;;;;;24.71;38.95;99485.94;1087342;47;19950;-88
2023/07/23 08:38:15;;;;;;;;;;;;;;;24.76;39.02;99490.63;1087352;47;19966;-86
2023/07/23 08:39:19;;;;;;;;;;;;;;;24.68;38.94;99488.34;1089344;39;20642;-87
2023/07/23 08:40:21;;;;;;;;;;;;;;;24.50;39.08;99483.94;1087622;54;19949;-87
2023/07/23 08:41:26;;;;;;;;;;;;;;;24.63;38.94;99489.06;1086967;47;19962;-85
2023/07/23 08:42:48;;;;;;;;;;;;;;;24.71;39.08;99487.81;1087143;54;19943;-86
2023/07/23 08:44:03;;;;;;;;;;;;;;;24.71;38.98;99488.66;1087475;54;19949;-86
2023/07/23 08:45:18;;;;;;;;;;;;;;;24.64;39.38;99481.69;1086919;54;19943;-84
2023/07/23 08:46:23;;;;;;;;;;;;;;;24.50;39.39;99492.97;1087198;54;19958;-86
2023/07/23 08:47:26;;;;;;;;;;;;;;;24.59;39.33;99487.91;1086885;47;19938;-88
2023/07/23 08:48:38;;;;;;;;;;;;;;;24.46;39.58;99478.16;1087292;54;19943;-85
2023/07/23 08:49:42;;;;;;;;;;;;;;;24.42;39.27;99502.41;1087481;54;19954;-85
2023/07/23 08:50:44;;;;;;;;;;;;;;;24.33;39.69;99495.72;1087213;47;21004;-83
2023/07/23 08:51:50;;;;;;;;;;;;;;;24.38;39.67;99492.25;1087254;47;19973;-86
2023/07/23 08:52:54;;;;;;;;;;;;;;;24.24;39.62;99497.22;1087165;46;19962;-85
2023/07/23 08:53:56;;;;;;;;;;;;;;;24.18;39.64;99492.75;1087163;47;19942;-84
2023/07/23 08:55:00;;;;;;;;;;;;;;;24.25;39.57;99490.69;1087247;47;19958;-86
2023/07/23 08:56:01;;;;;;;;;;;;;;;24.17;39.59;99491.09;1087200;54;20528;-84
2023/07/23 08:57:05;;;;;;;;;;;;;;;24.35;39.41;99499.03;1087395;54;20022;-84
2023/07/23 08:58:06;;;;;;;;;;;;;;;24.45;39.11;99496.47;1087254;54;19949;-84
2023/07/23 08:59:11;;;;;;;;;;;;;;;24.34;39.02;99483.72;1087215;47;19938;-84
2023/07/23 09:00:12;;;;;;;;;;;;;;;24.44;39.25;99493.97;1087177;54;20678;-83
2023/07/23 09:01:13;;;;;;;;;;;;;;;24.40;39.29;99498.28;1087268;47;20032;-86
2023/07/23 09:02:17;;;;;;;;;;;;;;;24.43;39.22;99498.63;1087223;54;19946;-86
2023/07/23 09:03:20;;;;;;;;;;;;;;;24.49;38.84;99496.78;1087472;54;19965;-85
2023/07/23 09:04:24;;;;;;;;;;;;;;;24.59;38.73;99490.63;1087182;46;19974;-83
2023/07/23 09:05:25;;;;;;;;;;;;;;;24.48;38.86;99488.81;1087128;54;20385;-85
2023/07/23 09:06:30;;;;;;;;;;;;;;;24.55;39.01;99487.56;1087236;54;20766;-84
2023/07/23 09:07:33;;;;;;;;;;;;;;;24.35;39.21;99487.28;1088768;39;20432;-85
2023/07/23 09:08:40;;;;;;;;;;;;;;;24.48;39.04;99486.94;1087245;54;19990;-86
2023/07/23 09:09:43;;;;;;;;;;;;;;;24.58;38.75;99483.50;1087604;54;20627;-86
2023/07/23 09:10:46;;;;;;;;;;;;;;;24.60;38.85;99497.75;1087355;47;19966;-85
2023/07/23 09:11:47;;;;;;;;;;;;;;;24.64;38.58;99487.16;1087336;47;19943;-86
2023/07/23 09:12:51;;;;;;;;;;;;;;;24.55;38.96;99487.56;1087398;54;19942;-86
2023/07/23 09:13:52;;;;;;;;;;;;;;;24.51;38.97;99485.59;1087689;54;19942;-89
2023/07/23 09:15:08;;;;;;;;;;;;;;;;;;;;;
2023/07/23 09:16:36;;;;;;;;;;;;;;;24.68;38.97;99499.28;1087265;47;19949;-87
2023/07/23 09:17:41;;;;;;;;;;;;;;;24.63;39.02;99489.06;1087406;54;19950;-87
2023/07/23 09:18:45;;;;;;;;;;;;;;;24.50;39.22;99498.44;1089461;39;20534;-85
2023/07/23 09:19:46;;;;;;;;;;;;;;;24.61;38.98;99496.69;1087535;54;19946;-84
2023/07/23 09:20:50;;;;;;;;;;;;;;;24.79;39.01;99494.75;1087395;47;19943;-85
2023/07/23 09:22:00;;;;;;;;;;;;;;;24.65;38.73;99497.84;1087367;47;19973;-87
2023/07/23 09:23:06;;;;;;;;;;;;;;;24.61;38.77;99504.88;1087389;47;19995;-86
2023/07/23 09:24:11;;;;;;;;;;;;;;;24.58;38.96;99511.69;1087186;54;20729;-86
2023/07/23 09:25:15;;;;;;;;;;;;;;;24.53;38.72;99502.56;1087583;54;20058;-85
2023/07/23 09:26:19;;;;;;;;;;;;;;;24.64;38.85;99501.66;1087718;54;20840;-85
2023/07/23 09:27:25;;;;;;;;;;;;;;;24.61;38.58;99493.94;1087260;47;19941;-86
2023/07/23 09:28:27;;;;;;;;;;;;;;;24.53;38.96;99502.56;1087557;46;19954;-87
2023/07/23 09:29:36;;;;;;;;;;;;;;;24.64;38.93;99492.63;1087518;54;19943;-86
2023/07/23 09:31:49;;;;;;;;;;;;;;;24.71;38.93;99494.13;1087323;54;19934;-87
2023/07/23 09:40:52;;;;;;;;;;;;;;;24.75;38.73;99484.34;1087146;46;19958;-87
2023/07/23 09:41:54;;;;;;;;;;;;;;;24.83;38.19;99477.59;1087275;54;19942;-87
2023/07/23 09:42:58;;;;;;;;;;;;;;;24.77;37.99;99476.72;1087058;47;19942;-86
2023/07/23 09:44:00;;;;;;;;;;;;;;;24.81;37.69;99476.22;1090598;39;20819;-87
2023/07/23 09:45:04;;;;;;;;;;;;;;;24.90;37.36;99478.25;1087092;54;19942;-88
2023/07/23 09:46:05;;;;;;;;;;;;;;;24.91;37.45;99470.88;1087219;54;20773;-87
2023/07/23 09:47:08;;;;;;;;;;;;;;;25.06;37.07;99473.81;1087067;47;19964;-86
2023/07/23 09:48:14;;;;;;;;;;;;;;;25.13;36.73;99461.88;1087044;47;19964;-87
2023/07/23 09:49:25;;;;;;;;;;;;;;;25.38;36.64;99458.56;1087217;54;19942;-87
2023/07/23 09:50:26;;;;;;;;;;;;;;;25.19;36.81;99466.28;1087240;54;19943;-87
2023/07/23 09:51:29;;;;;;;;;;;;;;;25.27;36.90;99456.81;1090796;39;21275;-86
2023/07/23 09:52:34;;;;;;;;;;;;;;;25.44;36.70;99467.69;1087130;47;19939;-88
2023/07/23 09:53:38;;;;;;;;;;;;;;;25.65;36.42;99457.75;1087150;47;19927;-88
2023/07/23 09:54:39;;;;;;;;;;;;;;;25.64;35.86;99458.88;1087209;47;19990;-88
2023/07/23 09:55:43;;;;;;;;;;;;;;;25.73;36.02;99460.06;1087128;47;20331;-87
2023/07/23 09:56:48;;;;;;;;;;;;;;;25.72;35.97;99458.41;1087103;47;19938;-87
2023/07/23 09:57:53;;;;;;;;;;;;;;;25.76;35.62;99450.50;1087108;47;19939;-87
2023/07/23 09:58:54;;;;;;;;;;;;;;;25.90;35.67;99456.34;1086997;47;19950;-87
2023/07/23 09:59:59;;;;;;;;;;;;;;;25.72;35.75;99457.56;1086951;54;19943;-87
2023/07/23 10:00:59;;;;;;;;;;;;;;;25.84;35.89;99456.31;1086821;47;20788;-85
2023/07/23 10:02:03;;;;;;;;;;;;;;;26.20;35.15;99457.72;1087080;54;19968;-88
2023/07/23 10:03:04;;;;;;;;;;;;;;;26.36;34.93;99461.38;1087039;47;20003;-88
2023/07/23 10:04:07;;;;;;;;;;;;;;;26.17;34.71;99450.84;1087147;54;19942;-87
2023/07/23 10:05:09;;;;;;;;;;;;;;;26.35;35.00;99451.53;1087026;47;19942;-87
2023/07/23 10:06:12;;;;;;;;;;;;;;;26.51;34.81;99464.22;1087061;54;19943;-87
2023/07/23 10:07:16;;;;;;;;;;;;;;;26.74;34.19;99456.66;1087109;54;19954;-88
2023/07/23 10:08:17;;;;;;;;;;;;;;;26.60;34.49;99450.84;1086991;47;20872;-88
2023/07/23 10:09:23;;;;;;;;;;;;;;;26.62;34.44;99454.97;1086936;47;19998;-86
2023/07/23 10:10:28;;;;;;;;;;;;;;;27.06;33.78;99448.31;1086902;47;19942;-87
2023/07/23 10:11:32;;;;;;;;;;;;;;;27.18;32.95;99450.00;1086965;47;19942;-85
2023/07/23 10:12:37;;;;;;;;;;;;;;;27.45;32.58;99444.34;1086933;47;19957;-84
2023/07/23 10:13:40;;;;;;;;;;;;;;;27.67;32.62;99446.03;1086596;47;20674;-88
2023/07/23 10:14:41;;;;;;;;;;;;;;;27.59;32.76;99449.31;1089036;39;20670;-86
2023/07/23 10:15:45;;;;;;;;;;;;;;;27.59;32.52;99449.31;1087047;47;19969;-87
2023/07/23 10:16:48;;;;;;;;;;;;;;;27.71;32.40;99436.16;1087971;39;20869;-84
2023/07/23 10:17:54;;;;;;;;;;;;;;;27.79;32.50;99437.53;1086853;47;19938;-85
2023/07/23 10:18:57;;;;;;;;;;;;;;;27.85;32.26;99431.78;1086851;47;20007;-86
2023/07/23 10:20:00;;;;;;;;;;;;;;;27.58;32.69;99437.50;1086958;54;19943;-88
2023/07/23 10:21:01;;;;;;;;;;;;;;;27.67;32.46;99432.31;1087011;46;19998;-86
2023/07/23 10:22:04;;;;;;;;;;;;;;;27.67;32.45;99435.06;1086944;47;20007;-85
2023/07/23 10:23:07;;;;;;;;;;;;;;;27.68;32.23;99437.53;1086905;47;19962;-86
2023/07/23 10:24:11;;;;;;;;;;;;;;;27.77;31.87;99436.97;1086825;47;20041;-85
2023/07/23 10:25:25;;;;;;;;;;;;;;;27.59;32.03;99435.56;1088471;39;20920;-85
2023/07/23 10:26:29;;;;;;;;;;;;;;;27.54;32.01;99437.25;1086998;47;19939;-86
2023/07/23 10:27:30;;;;;;;;;;;;;;;27.59;31.85;99430.94;1087039;47;19942;-85
2023/07/23 10:28:38;;;;;;;;;;;;;;;27.42;32.22;99433.06;1086992;47;19943;-86
2023/07/23 10:29:41;;;;;;;;;;;;;;;27.41;31.89;99434.97;1086786;47;19939;-85
2023/07/23 10:30:42;;;;;;;;;;;;;;;27.25;32.28;99434.16;1086926;54;19950;-83
2023/07/23 10:31:45;;;;;;;;;;;;;;;27.47;32.00;99430.34;1087021;54;19973;-86
2023/07/23 10:33:06;;;;;;;;;;;;;;;27.30;32.33;99431.41;1087054;54;19968;-83
2023/07/23 10:34:25;;;;;;;;;;;;;;;27.59;31.90;99436.41;1086934;47;19939;-86
2023/07/23 10:35:44;;;;;;;;;;;;;;;27.53;32.40;99429.28;1086950;54;19942;-85
2023/07/23 10:37:02;;;;;;;;;;;;;;;27.58;32.13;99429.28;1086980;47;19950;-84
2023/07/23 10:38:18;;;;;;;;;;;;;;;27.48;32.17;99421.88;1087035;54;19973;-85
2023/07/23 10:39:22;;;;;;;;;;;;;;;27.22;32.56;99419.03;1087111;47;19939;-85
2023/07/23 10:40:37;;;;;;;;;;;;;;;27.30;32.54;99425.09;1086418;47;19939;-84
2023/07/23 10:41:53;;;;;;;;;;;;;;;27.60;31.95;99426.25;1087140;47;19938;-85
2023/07/23 10:43:11;;;;;;;;;;;;;;;27.52;31.70;99422.16;1087029;47;19946;-85
2023/07/23 10:44:19;;;;;;;;;;;;;;;27.60;31.97;99421.59;1086991;47;19994;-85
2023/07/23 10:45:28;;;;;;;;;;;;;;;27.81;31.71;99414.19;1086961;54;19942;-84
2023/07/23 10:46:33;;;;;;;;;;;;;;;27.80;31.99;99411.72;1087105;47;19939;-84
2023/07/23 10:47:40;;;;;;;;;;;;;;;28.13;31.51;99415.84;1087054;47;20899;-85
2023/07/23 10:48:42;;;;;;;;;;;;;;;27.98;32.00;99407.59;1086969;47;19970;-84
2023/07/23 10:50:05;;;;;;;;;;;;;;;28.09;31.61;99420.25;1086955;54;19968;-86
2023/07/23 10:51:08;;;;;;;;;;;;;;;27.98;31.56;99402.09;1086933;54;20016;-83
2023/07/23 10:52:14;;;;;;;;;;;;;;;28.23;31.15;99397.69;1086922;54;19988;-85
2023/07/23 10:53:15;;;;;;;;;;;;;;;28.27;31.05;99399.63;1086895;47;19938;-85
2023/07/23 10:54:20;;;;;;;;;;;;;;;28.44;31.21;99398.47;1086886;47;19942;-85
2023/07/23 10:55:39;;;;;;;;;;;;;;;28.40;31.05;99409.19;1086828;47;19961;-84
2023/07/23 10:56:43;;;;;;;;;;;;;;;28.59;30.91;99397.59;1086820;54;20027;-84
2023/07/23 10:57:44;;;;;;;;;;;;;;;28.56;30.94;99398.97;1086912;46;19942;-86
2023/07/23 10:58:45;;;;;;;;;;;;;;;28.52;31.15;99405.31;1086802;47;19943;-85
2023/07/23 10:59:54;;;;;;;;;;;;;;;28.51;31.29;99398.97;1086811;54;19949;-85
2023/07/23 11:00:56;;;;;;;;;;;;;;;28.08;32.15;99402.09;1086942;54;19938;-85
2023/07/23 11:02:00;;;;;;;;;;;;;;;28.38;31.60;99413.34;1086852;47;19945;-85
2023/07/23 11:03:00;;;;;;;;;;;;;;;28.31;31.42;99394.38;1086838;47;19943;-85
2023/07/23 11:04:09;;;;;;;;;;;;;;;28.12;31.61;99397.72;1086833;47;19939;-83
2023/07/23 11:05:10;;;;;;;;;;;;;;;28.08;31.73;99399.34;1086816;47;19964;-85
2023/07/23 11:06:27;;;;;;;;;;;;;;;28.07;32.04;99394.97;1086818;47;19938;-83
2023/07/23 11:07:28;;;;;;;;;;;;;;;28.12;32.28;99392.22;1086915;47;19938;-85
2023/07/23 11:08:31;;;;;;;;;;;;;;;27.95;32.63;99408.16;1086968;47;19939;-86
2023/07/23 11:09:33;;;;;;;;;;;;;;;27.97;32.25;99401.28;1086984;47;20022;-86
2023/07/23 11:10:46;;;;;;;;;;;;;;;28.16;32.24;99392.50;1087067;54;20773;-85
2023/07/23 11:11:48;;;;;;;;;;;;;;;28.13;31.91;99398.53;1087019;54;19942;-85
2023/07/23 11:12:53;;;;;;;;;;;;;;;27.91;32.10;99391.41;1086862;54;19988;-87
2023/07/23 11:13:53;;;;;;;;;;;;;;;27.68;32.33;99382.63;1086743;54;19943;-85
2023/07/23 11:14:59;;;;;;;;;;;;;;;27.80;32.15;99381.53;1090228;39;20582;-85
2023/07/23 11:16:01;;;;;;;;;;;;;;;27.68;32.39;99382.63;1086847;47;19945;-84
2023/07/23 11:17:07;;;;;;;;;;;;;;;27.54;32.64;99382.34;1089264;39;21091;-85
2023/07/23 11:18:08;;;;;;;;;;;;;;;27.59;32.72;99372.44;1089887;39;20967;-86
2023/07/23 11:19:09;;;;;;;;;;;;;;;27.61;32.92;99376.59;1086633;47;19939;-84
2023/07/23 11:20:14;;;;;;;;;;;;;;;27.63;32.87;99384.53;1086763;54;19950;-85
2023/07/23 11:21:16;;;;;;;;;;;;;;;27.60;33.03;99385.91;1086801;47;19942;-86
2023/07/23 11:22:19;;;;;;;;;;;;;;;27.78;32.68;99384.53;1086743;54;19942;-86
2023/07/23 11:23:22;;;;;;;;;;;;;;;27.91;32.55;99383.16;1086776;47;19939;-83
2023/07/23 11:24:27;;;;;;;;;;;;;;;28.07;32.44;99383.97;1086638;46;20014;-84
2023/07/23 11:25:28;;;;;;;;;;;;;;;28.03;32.46;99377.38;1086711;54;19942;-83
2023/07/23 11:26:31;;;;;;;;;;;;;;;27.93;32.20;99366.41;1087183;54;20009;-83
2023/07/23 11:27:37;;;;;;;;;;;;;;;27.67;32.68;99371.94;1087113;47;20006;-83
2023/07/23 11:28:41;;;;;;;;;;;;;;;27.75;32.14;99370.53;1086941;47;20004;-83
2023/07/23 11:29:42;;;;;;;;;;;;;;;27.77;32.16;99379.31;1088097;39;20523;-85
2023/07/23 11:31:06;;;;;;;;;;;;;;;27.74;32.21;99375.22;1087194;47;19938;-85
2023/07/23 11:32:33;;;;;;;;;;;;;;;28.10;31.65;99380.69;1086971;47;19938;-82
2023/07/23 11:33:34;;;;;;;;;;;;;;;27.75;32.23;99371.38;1087114;54;19943;-82
2023/07/23 11:34:38;;;;;;;;;;;;;;;27.67;32.54;99372.75;1086924;39;20606;-85
2023/07/23 11:35:39;;;;;;;;;;;;;;;27.94;32.29;99379.03;1086961;47;19938;-82
2023/07/23 11:38:33;;;;;;;;;;;;;;;27.65;33.09;99377.66;1087109;47;19938;-85
2023/07/23 11:39:36;;;;;;;;;;;;;;;27.56;33.11;99365.59;1087198;54;20037;-84
2023/07/23 11:40:44;;;;;;;;;;;;;;;27.37;33.43;99379.81;1087025;47;19950;-84
2023/07/23 11:41:45;;;;;;;;;;;;;;;27.52;33.23;99370.81;1087055;47;20060;-82
2023/07/23 11:42:49;;;;;;;;;;;;;;;27.42;33.56;99376.25;1086989;54;20643;-86
2023/07/23 11:43:49;;;;;;;;;;;;;;;27.27;33.27;99363.34;1087078;47;19963;-83
2023/07/23 11:45:10;;;;;;;;;;;;;;;27.30;33.34;99364.75;1087158;54;19943;-84
2023/07/23 11:46:26;;;;;;;;;;;;;;;27.40;33.14;99371.06;1087419;39;20710;-82
2023/07/23 11:47:53;;;;;;;;;;;;;;;27.30;33.36;99368.28;1087292;47;19994;-83
2023/07/23 11:48:54;;;;;;;;;;;;;;;27.36;33.41;99364.44;1087169;47;19954;-82
2023/07/23 11:52:27;;;;;;;;;;;;;;;27.89;32.95;99351.56;1087042;46;19995;-85
2023/07/23 11:53:36;;;;;;;;;;;;;;;28.08;32.75;99351.84;1087176;54;20035;-84
2023/07/23 11:54:49;;;;;;;;;;;;;;;28.06;32.57;99343.84;1087249;54;19943;-86
2023/07/23 11:55:50;;;;;;;;;;;;;;;27.84;32.88;99346.91;1087096;47;19950;-86
2023/07/23 11:57:08;;;;;;;;;;;;;;;27.63;33.15;99357.09;1087172;54;20927;-85
2023/07/23 11:59:00;;;;;;;;;;;;;;;27.63;32.92;99343.38;1087298;39;20229;-85
2023/07/23 12:00:15;;;;;;;;;;;;;;;27.65;32.98;99338.44;1087255;46;19939;-85
2023/07/23 12:01:33;;;;;;;;;;;;;;;27.59;32.89;99345.84;1087213;54;19943;-86
2023/07/23 12:02:37;;;;;;;;;;;;;;;27.58;32.67;99343.38;1087922;31;20844;-85
2023/07/23 12:03:41;;;;;;;;;;;;;;;27.83;32.41;99340.59;1088153;39;20189;-86
2023/07/23 12:04:47;;;;;;;;;;;;;;;27.91;32.20;99343.88;1087198;46;19943;-84
2023/07/23 12:05:50;;;;;;;;;;;;;;;27.89;32.16;99343.34;1087070;47;19954;-87
2023/07/23 12:07:13;;;;;;;;;;;;;;;27.95;32.30;99340.31;1087220;46;19998;-87
2023/07/23 12:08:18;;;;;;;;;;;;;;;27.85;32.11;99340.31;1086660;54;20047;-85
2023/07/23 12:09:26;;;;;;;;;;;;;;;27.97;31.90;99335.38;1086139;47;19950;-87
2023/07/23 12:10:27;;;;;;;;;;;;;;;28.16;31.70;99332.88;1086976;47;19950;-86
2023/07/23 12:11:33;;;;;;;;;;;;;;;28.08;31.59;99340.88;1087209;47;19942;-85
2023/07/23 12:12:34;;;;;;;;;;;;;;;28.14;31.26;99337.84;1087651;54;19943;-84
2023/07/23 12:13:56;;;;;;;;;;;;;;;28.02;31.23;99338.09;1087666;46;20399;-84
2023/07/23 12:15:12;;;;;;;;;;;;;;;28.24;31.56;99338.91;1087573;47;19957;-84
2023/07/23 12:16:36;;;;;;;;;;;;;;;28.30;31.36;99343.28;1087634;54;19994;-85
2023/07/23 12:17:38;;;;;;;;;;;;;;;28.02;31.52;99340.03;1087525;54;19966;-84
2023/07/23 12:19:06;;;;;;;;;;;;;;;27.71;32.19;99337.31;1087386;46;19958;-86
2023/07/23 12:20:42;;;;;;;;;;;;;;;27.53;32.22;99334.03;1087448;47;19942;-86
2023/07/23 12:21:46;;;;;;;;;;;;;;;27.51;32.18;99340.91;1087634;54;19973;-86
2023/07/23 12:22:52;;;;;;;;;;;;;;;27.63;32.15;99340.63;1087745;54;20010;-85
2023/07/23 12:23:53;;;;;;;;;;;;;;;27.60;32.38;99338.41;1087936;54;19965;-85
2023/07/23 12:24:56;;;;;;;;;;;;;;;27.45;32.82;99331.84;1087695;54;19943;-84
2023/07/23 12:25:58;;;;;;;;;;;;;;;27.43;32.84;99331.28;1087510;54;19942;-85
2023/07/23 12:27:03;;;;;;;;;;;;;;;27.50;32.93;99340.06;1087709;54;19942;-83
2023/07/23 12:28:04;;;;;;;;;;;;;;;27.38;33.16;99334.03;1087575;47;19943;-84
2023/07/23 12:29:04;;;;;;;;;;;;;;;27.38;33.22;99325.78;1087483;54;19943;-84
2023/07/23 12:30:09;;;;;;;;;;;;;;;27.35;33.27;99337.31;1087354;47;19943;-85
2023/07/23 12:31:10;;;;;;;;;;;;;;;27.35;33.10;99334.56;1087379;46;19939;-85
2023/07/23 12:32:14;;;;;;;;;;;;;;;27.33;32.77;99331.25;1087219;54;19943;-83
2023/07/23 12:33:15;;;;;;;;;;;;;;;27.19;33.00;99337.31;1087208;47;19963;-85
2023/07/23 12:34:19;;;;;;;;;;;;;;;27.15;32.89;99341.66;1087251;54;19967;-84
2023/07/23 12:35:19;;;;;;;;;;;;;;;27.05;33.00;99347.13;1086841;47;19966;-85
2023/07/23 12:36:23;;;;;;;;;;;;;;;27.18;32.86;99330.16;1086675;47;19942;-84
2023/07/23 12:37:26;;;;;;;;;;;;;;;27.13;33.27;99345.78;1086898;47;19994;-84
2023/07/23 12:38:30;;;;;;;;;;;;;;;27.18;33.48;99345.78;1086924;47;19939;-85
2023/07/23 12:39:30;;;;;;;;;;;;;;;27.15;33.76;99343.59;1088384;39;20980;-84
2023/07/23 12:40:34;;;;;;;;;;;;;;;27.22;33.27;99353.19;1086823;54;19967;-84
2023/07/23 12:41:36;;;;;;;;;;;;;;;27.12;33.63;99352.34;1086862;46;19943;-85
2023/07/23 12:42:39;;;;;;;;;;;;;;;27.13;33.58;99349.34;1086804;54;19949;-86
2023/07/23 12:43:40;;;;;;;;;;;;;;;27.05;33.61;99352.63;1086748;46;19939;-84
2023/07/23 12:44:43;;;;;;;;;;;;;;;26.91;33.70;99353.16;1086796;47;20821;-83
2023/07/23 12:45:44;;;;;;;;;;;;;;;26.73;34.31;99345.41;1086799;47;20873;-85
2023/07/23 12:46:47;;;;;;;;;;;;;;;26.80;34.08;99345.16;1086811;54;19969;-84
2023/07/23 12:47:48;;;;;;;;;;;;;;;26.77;34.31;99346.50;1086849;54;19976;-85
2023/07/23 12:48:52;;;;;;;;;;;;;;;26.72;34.25;99344.56;1087322;39;21187;-85
2023/07/23 12:49:54;;;;;;;;;;;;;;;26.55;34.32;99344.75;1086874;47;20022;-85
2023/07/23 12:50:57;;;;;;;;;;;;;;;26.51;34.53;99345.56;1086753;47;19943;-85
2023/07/23 12:51:58;;;;;;;;;;;;;;;26.44;35.20;99343.09;1086774;47;19942;-84
2023/07/23 12:53:04;;;;;;;;;;;;;;;26.49;35.51;99356.78;1086827;46;19976;-84
2023/07/23 12:54:06;;;;;;;;;;;;;;;26.70;35.21;99348.66;1086890;54;19975;-85
2023/07/23 12:55:10;;;;;;;;;;;;;;;26.68;35.33;99342.63;1087026;47;19942;-84